createdAt,value
2018-07-22T00:01:17.471Z,73.74
2018-07-22T00:03:48.471Z,72.81
2018-07-22T00:06:19.495Z,72.74
2018-07-22T00:08:50.462Z,73.17
2018-07-22T00:11:21.738Z,73.12
2018-07-22T00:13:52.593Z,73.23
2018-07-22T00:16:23.498Z,72.76
2018-07-22T00:18:54.479Z,73.12
2018-07-22T00:21:25.520Z,73.83
2018-07-22T00:23:56.502Z,73.18
2018-07-22T00:26:27.489Z,73.24
2018-07-22T00:28:58.649Z,73.46
2018-07-22T00:31:29.484Z,72.75
2018-07-22T00:34:00.493Z,73.05
2018-07-22T00:36:31.485Z,72.16
2018-07-22T00:39:02.449Z,72.18
2018-07-22T00:41:33.497Z,72.83
2018-07-22T00:44:04.510Z,72.01
2018-07-22T00:46:35.489Z,72.34
2018-07-22T00:49:06.581Z,73.89
2018-07-22T00:51:37.513Z,72.86
2018-07-22T00:54:08.660Z,73.67
2018-07-22T00:56:39.561Z,73.25
2018-07-22T00:59:10.506Z,73.63
2018-07-22T01:01:41.461Z,72.93
2018-07-22T01:04:12.481Z,72.89
2018-07-22T01:06:43.496Z,73.18
2018-07-22T01:09:14.472Z,73.21
2018-07-22T01:11:45.538Z,73.81
2018-07-22T01:14:16.480Z,73.52
2018-07-22T01:16:47.481Z,73.38
2018-07-22T01:19:18.497Z,73.60
2018-07-22T01:21:49.476Z,73.89
2018-07-22T01:24:20.551Z,74.24
2018-07-22T01:26:51.492Z,74.54
2018-07-22T01:29:22.504Z,74.59
2018-07-22T01:31:53.472Z,74.51
2018-07-22T01:34:24.489Z,74.22
2018-07-22T01:36:55.500Z,74.17
2018-07-22T01:39:26.638Z,73.92
2018-07-22T01:41:57.482Z,73.53
2018-07-22T01:44:28.479Z,72.58
2018-07-22T01:46:59.457Z,72.92
2018-07-22T01:49:30.773Z,73.39
2018-07-22T01:52:01.558Z,73.37
2018-07-22T01:54:32.496Z,74.60
2018-07-22T01:57:03.477Z,74.08
2018-07-22T01:59:34.465Z,73.26
2018-07-22T02:02:05.525Z,73.86
2018-07-22T02:04:36.440Z,73.52
2018-07-22T02:07:07.476Z,72.74
2018-07-22T02:09:38.614Z,72.76
2018-07-22T02:12:09.497Z,72.61
2018-07-22T02:14:40.483Z,73.20
2018-07-22T02:17:11.523Z,72.98
2018-07-22T02:19:42.525Z,72.94
2018-07-22T02:22:13.503Z,74.76
2018-07-22T02:24:44.475Z,74.34
2018-07-22T02:27:15.474Z,75.04
2018-07-22T02:29:46.626Z,75.66
2018-07-22T02:32:17.491Z,75.51
2018-07-22T02:34:48.501Z,74.98
2018-07-22T02:37:19.478Z,75.48
2018-07-22T02:39:50.537Z,75.16
2018-07-22T02:42:21.497Z,74.92
2018-07-22T02:44:52.489Z,75.42
2018-07-22T02:47:23.488Z,75.25
2018-07-22T02:49:54.547Z,74.65
2018-07-22T02:52:25.510Z,75.01
2018-07-22T02:54:56.496Z,74.50
2018-07-22T02:57:27.485Z,74.63
2018-07-22T02:59:58.513Z,73.85
2018-07-22T03:02:29.502Z,74.18
2018-07-22T03:05:00.513Z,73.91
2018-07-22T03:07:31.482Z,74.39
2018-07-22T03:10:02.501Z,74.20
2018-07-22T03:12:33.500Z,74.29
2018-07-22T03:15:04.493Z,73.92
2018-07-22T03:17:35.461Z,74.21
2018-07-22T03:20:06.580Z,74.87
2018-07-22T03:22:37.488Z,73.94
2018-07-22T03:25:08.533Z,75.96
2018-07-22T03:27:39.469Z,77.34
2018-07-22T03:30:10.497Z,77.31
2018-07-22T03:32:41.706Z,77.23
2018-07-22T03:35:12.574Z,76.85
2018-07-22T03:37:43.505Z,76.16
2018-07-22T03:40:15.237Z,75.91
2018-07-22T03:42:46.355Z,76.37
2018-07-22T03:45:17.387Z,76.77
2018-07-22T03:47:48.436Z,76.76
2018-07-22T03:50:19.461Z,76.40
2018-07-22T03:52:50.456Z,76.93
2018-07-22T03:55:21.477Z,76.80
2018-07-22T03:57:52.483Z,76.21
2018-07-22T04:00:23.518Z,77.15
2018-07-22T04:02:55.188Z,76.62
2018-07-22T04:05:26.441Z,77.88
2018-07-22T04:07:57.483Z,77.86
2018-07-22T04:10:28.457Z,78.70
2018-07-22T04:12:59.516Z,78.46
2018-07-22T04:15:30.481Z,77.45
2018-07-22T04:18:01.478Z,78.78
2018-07-22T04:20:32.489Z,78.47
2018-07-22T04:23:03.456Z,78.80
2018-07-22T04:25:34.509Z,78.71
2018-07-22T04:28:05.495Z,78.47
2018-07-22T04:30:36.547Z,77.48
2018-07-22T04:33:07.501Z,78.78
2018-07-22T04:35:38.501Z,78.83
2018-07-22T04:38:09.476Z,78.60
2018-07-22T04:40:40.493Z,77.97
2018-07-22T04:43:11.477Z,77.66
2018-07-22T04:45:42.540Z,77.70
2018-07-22T04:48:13.505Z,76.93
2018-07-22T04:50:44.462Z,76.76
2018-07-22T04:53:15.477Z,77.32
2018-07-22T04:55:46.527Z,76.81
2018-07-22T04:58:17.488Z,76.34
2018-07-22T05:00:48.496Z,76.11
2018-07-22T05:03:19.480Z,76.14
2018-07-22T05:05:50.490Z,75.75
2018-07-22T05:08:21.494Z,75.63
2018-07-22T05:10:52.495Z,75.44
2018-07-22T05:13:23.485Z,74.81
2018-07-22T05:15:54.505Z,75.38
2018-07-22T05:18:25.460Z,75.58
2018-07-22T05:20:56.505Z,75.05
2018-07-22T05:23:27.507Z,76.08
2018-07-22T05:25:58.500Z,75.19
2018-07-22T05:28:29.504Z,75.18
2018-07-22T05:31:00.511Z,75.24
2018-07-22T05:33:31.478Z,76.26
2018-07-22T05:36:02.528Z,76.05
2018-07-22T05:38:33.484Z,76.79
2018-07-22T05:41:04.466Z,77.05
2018-07-22T05:43:35.855Z,76.34
2018-07-22T05:46:07.267Z,76.74
2018-07-22T05:48:38.444Z,75.86
2018-07-22T05:51:09.517Z,75.96
2018-07-22T05:53:40.490Z,76.05
2018-07-22T05:56:11.493Z,75.40
2018-07-22T05:58:42.481Z,74.31
2018-07-22T06:01:13.497Z,74.09
2018-07-22T06:03:44.509Z,75.32
2018-07-22T06:06:15.497Z,74.54
2018-07-22T06:08:46.501Z,74.17
2018-07-22T06:11:17.755Z,74.38
2018-07-22T06:13:48.578Z,73.96
2018-07-22T06:16:19.592Z,74.34
2018-07-22T06:18:50.620Z,72.95
2018-07-22T06:21:21.613Z,71.42
2018-07-22T06:23:52.994Z,71.79
2018-07-22T06:26:24.197Z,71.72
2018-07-22T06:28:55.512Z,71.16
2018-07-22T06:31:26.508Z,70.32
2018-07-22T06:33:57.491Z,70.26
2018-07-22T06:36:28.510Z,70.55
2018-07-22T06:38:59.509Z,69.68
2018-07-22T06:41:30.594Z,69.54
2018-07-22T06:44:01.506Z,68.88
2018-07-22T06:46:32.547Z,68.53
2018-07-22T06:49:03.505Z,68.48
2018-07-22T06:51:34.517Z,69.80
2018-07-22T06:54:05.480Z,68.58
2018-07-22T06:56:36.531Z,68.41
2018-07-22T06:59:07.497Z,68.25
2018-07-22T07:01:39.299Z,68.41
2018-07-22T07:04:10.396Z,69.42
2018-07-22T07:06:41.514Z,68.91
2018-07-22T07:09:13.381Z,68.77
2018-07-22T07:11:44.469Z,67.44
2018-07-22T07:14:15.525Z,67.78
2018-07-22T07:16:46.496Z,67.77
2018-07-22T07:19:17.458Z,68.87
2018-07-22T07:21:48.514Z,66.98
2018-07-22T07:24:19.810Z,67.58
2018-07-22T07:26:50.278Z,65.85
2018-07-22T07:29:21.546Z,65.13
2018-07-22T07:31:52.505Z,65.47
2018-07-22T07:34:23.543Z,64.75
2018-07-22T07:36:54.520Z,63.91
2018-07-22T07:39:25.567Z,63.22
2018-07-22T07:41:56.496Z,63.02
2018-07-22T07:44:27.507Z,63.57
2018-07-22T07:46:58.480Z,64.69
2018-07-22T07:49:29.457Z,63.98
2018-07-22T07:52:00.481Z,63.20
2018-07-22T07:54:31.452Z,63.66
2018-07-22T07:57:02.459Z,63.37
2018-07-22T07:59:33.464Z,61.63
2018-07-22T08:02:04.550Z,62.70
2018-07-22T08:04:35.482Z,61.54
2018-07-22T08:07:06.753Z,62.95
2018-07-22T08:09:38.757Z,62.17
2018-07-22T08:12:09.592Z,60.48
2018-07-22T08:14:41.047Z,60.87
2018-07-22T08:17:12.392Z,60.13
2018-07-22T08:19:44.613Z,60.87
2018-07-22T08:22:15.646Z,60.16
2018-07-22T08:24:47.059Z,61.71
2018-07-22T08:27:18.267Z,60.36
2018-07-22T08:29:49.708Z,60.11
2018-07-22T08:32:23.301Z,59.78
2018-07-22T08:34:54.597Z,57.02
2018-07-22T08:37:25.599Z,56.28
2018-07-22T08:39:56.553Z,56.45
2018-07-22T08:42:27.506Z,57.58
2018-07-22T08:44:58.514Z,56.08
2018-07-22T08:47:30.486Z,54.33
2018-07-22T08:50:01.466Z,54.35
2018-07-22T08:52:32.501Z,53.74
2018-07-22T08:55:04.294Z,54.54
2018-07-22T08:57:35.394Z,53.26
2018-07-22T09:00:07.705Z,53.08
2018-07-22T09:02:38.588Z,53.16
2018-07-22T09:05:09.640Z,53.89
2018-07-22T09:07:41.009Z,54.42
2018-07-22T09:10:12.288Z,53.40
2018-07-22T09:12:43.401Z,52.33
2018-07-22T09:15:14.522Z,52.46
2018-07-22T09:17:45.747Z,53.33
2018-07-22T09:20:16.658Z,52.49
2018-07-22T09:22:47.658Z,51.71
2018-07-22T09:25:19.358Z,52.01
2018-07-22T09:27:50.459Z,50.98
2018-07-22T09:30:21.550Z,50.02
2018-07-22T09:32:53.226Z,50.46
2018-07-22T09:35:24.366Z,49.57
2018-07-22T09:37:55.529Z,50.27
2018-07-22T09:40:26.505Z,46.17
2018-07-22T09:42:57.575Z,48.38
2018-07-22T09:45:28.506Z,48.87
2018-07-22T09:47:59.509Z,47.91
2018-07-22T09:50:30.436Z,48.35
2018-07-22T09:53:01.478Z,44.38
2018-07-22T09:55:32.488Z,43.77
2018-07-22T09:58:03.501Z,44.42
2018-07-22T10:00:41.340Z,42.77
2018-07-22T10:03:12.365Z,44.02
2018-07-22T10:05:43.405Z,43.49
2018-07-22T10:08:14.586Z,41.94
2018-07-22T10:10:45.593Z,40.64
2018-07-22T10:13:16.714Z,44.79
2018-07-22T10:15:47.597Z,43.70
2018-07-22T10:18:18.523Z,44.95
2018-07-22T10:20:49.558Z,43.65
2018-07-22T10:23:20.610Z,42.88
2018-07-22T10:25:51.529Z,41.80
2018-07-22T10:28:22.517Z,42.72
2018-07-22T10:30:53.516Z,42.34
2018-07-22T10:33:24.537Z,41.18
2018-07-22T10:35:55.536Z,42.17
2018-07-22T10:38:26.517Z,44.14
2018-07-22T10:40:57.522Z,45.66
2018-07-22T10:43:28.518Z,44.05
2018-07-22T10:45:59.468Z,41.29
2018-07-22T10:48:30.542Z,40.61
2018-07-22T10:51:01.501Z,41.67
2018-07-22T10:53:32.469Z,40.55
2018-07-22T10:56:03.554Z,40.21
2018-07-22T10:58:34.468Z,41.67
2018-07-22T11:01:05.505Z,38.17
2018-07-22T11:03:36.481Z,38.19
2018-07-22T11:06:07.514Z,39.55
2018-07-22T11:08:38.476Z,40.76
2018-07-22T11:11:09.525Z,38.68
2018-07-22T11:13:40.505Z,40.27
2018-07-22T11:16:11.469Z,40.20
2018-07-22T11:18:42.507Z,38.62
2018-07-22T11:21:13.604Z,41.04
2018-07-22T11:23:44.541Z,41.88
2018-07-22T11:26:15.505Z,41.68
2018-07-22T11:28:46.591Z,41.91
2018-07-22T11:31:17.458Z,44.79
2018-07-22T11:33:48.510Z,43.94
2018-07-22T11:36:19.497Z,43.35
2018-07-22T11:38:50.489Z,45.78
2018-07-22T11:41:21.460Z,45.61
2018-07-22T11:43:52.528Z,44.34
2018-07-22T11:46:24.380Z,44.99
2018-07-22T11:48:55.465Z,44.02
2018-07-22T11:51:26.511Z,43.88
2018-07-22T11:53:57.500Z,42.99
2018-07-22T11:56:28.473Z,42.41
2018-07-22T11:58:59.450Z,38.25
2018-07-22T12:01:30.543Z,37.65
2018-07-22T12:04:01.525Z,36.28
2018-07-22T12:06:32.506Z,35.83
2018-07-22T12:09:03.626Z,38.12
2018-07-22T12:11:34.506Z,36.76
2018-07-22T12:14:05.547Z,35.86
2018-07-22T12:16:36.507Z,35.90
2018-07-22T12:19:07.526Z,34.49
2018-07-22T12:21:38.478Z,36.52
2018-07-22T12:24:09.481Z,34.83
2018-07-22T12:26:40.493Z,34.06
2018-07-22T12:29:11.495Z,35.15
2018-07-22T12:31:42.480Z,34.15
2018-07-22T12:34:13.477Z,32.64
2018-07-22T12:36:44.461Z,32.21
2018-07-22T12:39:15.500Z,33.51
2018-07-22T12:41:46.542Z,32.29
2018-07-22T12:44:17.507Z,32.12
2018-07-22T12:46:48.497Z,31.92
2018-07-22T12:49:19.493Z,32.63
2018-07-22T12:51:50.538Z,34.92
2018-07-22T12:54:21.505Z,32.56
2018-07-22T12:56:52.526Z,35.13
2018-07-22T12:59:23.500Z,35.33
2018-07-22T13:01:54.480Z,34.79
2018-07-22T13:04:25.524Z,34.16
2018-07-22T13:06:56.607Z,38.87
2018-07-22T13:09:27.526Z,38.52
2018-07-22T13:11:58.517Z,38.52
2018-07-22T13:14:29.529Z,37.79
2018-07-22T13:17:00.495Z,37.33
2018-07-22T13:19:31.543Z,37.42
2018-07-22T13:22:02.519Z,37.58
2018-07-22T13:24:33.513Z,39.25
2018-07-22T13:27:04.513Z,37.03
2018-07-22T13:29:35.519Z,37.22
2018-07-22T13:32:06.497Z,36.37
2018-07-22T13:34:37.509Z,36.91
2018-07-22T13:37:08.860Z,35.58
2018-07-22T13:39:39.285Z,37.96
2018-07-22T13:42:10.388Z,39.04
2018-07-22T13:44:41.470Z,37.07
2018-07-22T13:47:12.510Z,37.27
2018-07-22T13:49:43.602Z,37.47
2018-07-22T13:52:14.486Z,38.84
2018-07-22T13:54:45.505Z,41.33
2018-07-22T13:57:16.497Z,42.05
2018-07-22T13:59:47.509Z,41.42
2018-07-22T14:02:18.498Z,42.24
2018-07-22T14:04:50.231Z,42.24
2018-07-22T14:07:21.406Z,42.01
2018-07-22T14:09:52.461Z,42.28
2018-07-22T14:12:23.457Z,43.73
2018-07-22T14:14:54.476Z,43.79
2018-07-22T14:17:25.472Z,44.04
2018-07-22T14:19:56.505Z,45.39
2018-07-22T14:22:27.760Z,46.05
2018-07-22T14:24:58.656Z,46.62
2018-07-22T14:27:29.522Z,47.94
2018-07-22T14:30:00.534Z,48.21
2018-07-22T14:32:31.755Z,49.10
2018-07-22T14:35:02.620Z,48.36
2018-07-22T14:37:33.624Z,48.91
2018-07-22T14:40:05.303Z,48.20
2018-07-22T14:42:36.363Z,48.58
2018-07-22T14:45:09.451Z,47.51
2018-07-22T14:47:40.500Z,47.37
2018-07-22T14:50:11.712Z,47.17
2018-07-22T14:52:42.602Z,47.93
2018-07-22T14:55:13.715Z,47.45
2018-07-22T14:57:44.553Z,47.21
2018-07-22T15:00:15.520Z,47.10
2018-07-22T15:02:46.485Z,47.48
2018-07-22T15:05:17.538Z,46.74
2018-07-22T15:07:48.718Z,45.84
2018-07-22T15:10:19.765Z,46.09
2018-07-22T15:12:50.714Z,46.44
2018-07-22T15:15:21.596Z,46.76
2018-07-22T15:17:53.573Z,47.11
2018-07-22T15:20:24.513Z,45.68
2018-07-22T15:22:56.298Z,46.48
2018-07-22T15:25:27.483Z,44.92
2018-07-22T15:27:58.521Z,45.53
2018-07-22T15:30:29.510Z,45.15
2018-07-22T15:33:00.537Z,45.61
2018-07-22T15:35:31.668Z,46.87
2018-07-22T15:38:02.540Z,48.23
2018-07-22T15:40:33.526Z,48.01
2018-07-22T15:43:05.013Z,48.50
2018-07-22T15:45:36.297Z,48.76
2018-07-22T15:48:07.558Z,50.59
2018-07-22T15:50:38.504Z,50.59
2018-07-22T15:53:09.461Z,51.94
2018-07-22T15:55:40.756Z,51.08
2018-07-22T15:58:11.492Z,51.69
2018-07-22T16:00:42.534Z,53.03
2018-07-22T16:03:13.431Z,52.88
2018-07-22T16:05:44.737Z,52.93
2018-07-22T16:08:16.609Z,52.82
2018-07-22T16:10:47.579Z,52.67
2018-07-22T16:13:18.493Z,52.79
2018-07-22T16:15:49.497Z,53.64
2018-07-22T16:18:20.625Z,54.49
2018-07-22T16:20:52.033Z,53.08
2018-07-22T16:23:23.421Z,52.98
2018-07-22T16:25:54.512Z,54.92
2018-07-22T16:28:25.666Z,54.62
2018-07-22T16:30:56.573Z,54.02
2018-07-22T16:33:27.500Z,55.63
2018-07-22T16:35:58.533Z,56.79
2018-07-22T16:38:29.581Z,55.71
2018-07-22T16:41:00.803Z,56.07
2018-07-22T16:43:31.599Z,54.94
2018-07-22T16:46:02.564Z,55.48
2018-07-22T16:48:33.477Z,55.67
2018-07-22T16:51:04.525Z,55.54
2018-07-22T16:53:35.530Z,56.31
2018-07-22T16:56:06.526Z,54.87
2018-07-22T16:58:37.574Z,55.20
2018-07-22T17:01:08.575Z,56.28
2018-07-22T17:03:39.497Z,57.32
2018-07-22T17:06:11.329Z,58.07
2018-07-22T17:08:42.435Z,59.57
2018-07-22T17:11:13.533Z,60.28
2018-07-22T17:13:44.604Z,60.46
2018-07-22T17:16:15.579Z,62.51
2018-07-22T17:18:46.516Z,61.48
2018-07-22T17:21:17.507Z,63.94
2018-07-22T17:23:48.586Z,62.34
2018-07-22T17:26:19.510Z,62.19
2018-07-22T17:28:50.541Z,63.02
2018-07-22T17:31:21.688Z,64.40
2018-07-22T17:33:52.606Z,64.81
2018-07-22T17:36:23.656Z,64.74
2018-07-22T17:38:54.645Z,64.03
2018-07-22T17:41:25.628Z,64.76
2018-07-22T17:43:56.506Z,64.44
2018-07-22T17:46:27.662Z,63.83
2018-07-22T17:51:47.417Z,64.17
2018-07-22T17:54:18.514Z,64.20
2018-07-22T17:56:49.530Z,64.86
2018-07-22T17:59:20.494Z,65.10
2018-07-22T18:01:51.494Z,64.59
2018-07-22T18:04:22.503Z,64.16
2018-07-22T18:06:53.537Z,64.36
2018-07-22T18:09:24.488Z,64.05
2018-07-22T18:11:55.504Z,62.68
2018-07-22T18:14:26.544Z,64.44
2018-07-22T18:16:57.513Z,64.60
2018-07-22T18:19:28.501Z,64.73
2018-07-22T18:21:59.486Z,63.95
2018-07-22T18:24:30.490Z,64.46
2018-07-22T18:27:01.507Z,65.62
2018-07-22T18:29:32.529Z,65.80
2018-07-22T18:32:03.507Z,66.21
2018-07-22T18:34:34.506Z,66.47
2018-07-22T18:37:05.740Z,66.10
2018-07-22T18:39:36.547Z,66.83
2018-07-22T18:42:07.541Z,65.66
2018-07-22T18:44:38.513Z,66.26
2018-07-22T18:47:09.524Z,65.14
2018-07-22T18:49:40.595Z,64.60
2018-07-22T18:52:11.497Z,65.50
2018-07-22T18:54:42.494Z,65.47
2018-07-22T18:57:13.493Z,64.34
2018-07-22T18:59:44.522Z,64.47
2018-07-22T19:02:15.514Z,63.95
2018-07-22T19:04:46.488Z,64.51
2018-07-22T19:07:17.504Z,63.83
2018-07-22T19:09:48.535Z,64.19
2018-07-22T19:12:19.520Z,65.13
2018-07-22T19:14:50.581Z,65.86
2018-07-22T19:17:21.521Z,65.40
2018-07-22T19:19:52.511Z,65.72
2018-07-22T19:22:23.531Z,65.85
2018-07-22T19:24:54.518Z,65.23
2018-07-22T19:27:25.517Z,66.00
2018-07-22T19:29:56.538Z,65.21
2018-07-22T19:32:27.502Z,64.13
2018-07-22T19:34:58.482Z,64.77
2018-07-22T19:37:29.488Z,63.68
2018-07-22T19:40:00.547Z,65.02
2018-07-22T19:42:31.526Z,63.76
2018-07-22T19:45:02.534Z,64.30
2018-07-22T19:47:33.498Z,64.96
2018-07-22T19:50:04.525Z,64.59
2018-07-22T19:52:35.475Z,65.22
2018-07-22T19:55:06.746Z,64.29
2018-07-22T19:57:37.633Z,63.71
2018-07-22T20:00:08.495Z,64.32
2018-07-22T20:02:39.614Z,65.73
2018-07-22T20:05:10.598Z,65.97
2018-07-22T20:07:41.518Z,65.99
2018-07-22T20:10:12.505Z,66.73
2018-07-22T20:12:43.727Z,66.10
2018-07-22T20:15:15.405Z,66.76
2018-07-22T20:17:46.566Z,66.44
2018-07-22T20:20:17.613Z,66.40
2018-07-22T20:22:48.663Z,65.76
2018-07-22T20:25:19.568Z,66.84
2018-07-22T20:27:50.621Z,65.52
2018-07-22T20:30:21.588Z,65.90
2018-07-22T20:32:52.648Z,65.93
2018-07-22T20:35:23.612Z,67.33
2018-07-22T20:37:54.586Z,67.35
2018-07-22T20:40:25.545Z,65.98
2018-07-22T20:42:56.626Z,67.27
2018-07-22T20:45:27.650Z,66.71
2018-07-22T20:47:58.766Z,67.03
2018-07-22T20:50:30.011Z,67.87
2018-07-22T20:53:01.388Z,67.97
2018-07-22T20:55:32.531Z,67.47
2018-07-22T20:58:03.503Z,67.53
2018-07-22T21:00:34.593Z,68.32
2018-07-22T21:03:07.029Z,67.83
2018-07-22T21:05:38.374Z,67.31
2018-07-22T21:08:09.564Z,67.26
2018-07-22T21:10:40.536Z,68.17
2018-07-22T21:13:28.424Z,67.56
2018-07-22T21:15:59.522Z,67.31
2018-07-22T21:18:30.614Z,68.51
2018-07-22T21:21:01.658Z,68.41
2018-07-22T21:23:32.484Z,68.05
2018-07-22T21:26:03.573Z,68.12
2018-07-22T21:28:34.578Z,68.10
2018-07-22T21:31:05.519Z,68.36
2018-07-22T21:33:36.521Z,68.30
2018-07-22T21:36:07.484Z,68.51
2018-07-22T21:38:38.516Z,67.74
2018-07-22T21:41:09.523Z,67.25
2018-07-22T21:43:40.537Z,67.66
2018-07-22T21:46:11.480Z,67.14
2018-07-22T21:48:42.512Z,67.58
2018-07-22T21:51:13.492Z,67.69
2018-07-22T21:53:44.466Z,68.29
2018-07-22T21:56:15.485Z,68.71
2018-07-22T21:58:46.479Z,67.79
2018-07-22T22:01:17.480Z,68.93
2018-07-22T22:03:48.494Z,68.37
2018-07-22T22:06:19.486Z,68.95
2018-07-22T22:08:50.484Z,68.59
2018-07-22T22:11:21.497Z,69.52
2018-07-22T22:13:52.445Z,69.58
2018-07-22T22:16:23.516Z,68.61
2018-07-22T22:18:54.498Z,68.44
2018-07-22T22:21:25.490Z,69.30
2018-07-22T22:23:56.485Z,68.79
2018-07-22T22:26:27.511Z,69.17
2018-07-22T22:28:58.497Z,69.78
2018-07-22T22:31:29.531Z,68.98
2018-07-22T22:34:00.513Z,69.20
2018-07-22T22:36:31.494Z,69.68
2018-07-22T22:39:02.536Z,69.42
2018-07-22T22:41:33.489Z,68.69
2018-07-22T22:44:04.529Z,69.28
2018-07-22T22:46:35.505Z,69.67
2018-07-22T22:49:06.557Z,69.88
2018-07-22T22:51:37.586Z,70.00
2018-07-22T22:54:08.563Z,69.31
2018-07-22T22:56:39.484Z,70.03
2018-07-22T22:59:19.616Z,69.84
2018-07-22T23:01:51.284Z,70.59
2018-07-22T23:04:22.677Z,70.75
2018-07-22T23:06:53.553Z,70.38
2018-07-22T23:09:24.505Z,70.78
2018-07-22T23:11:55.477Z,70.29
2018-07-22T23:14:26.502Z,70.88
2018-07-22T23:16:57.525Z,69.99
2018-07-22T23:19:28.481Z,70.63
2018-07-22T23:21:59.493Z,70.68
2018-07-22T23:24:30.542Z,70.00
2018-07-22T23:27:01.510Z,71.39
2018-07-22T23:29:33.224Z,70.68
2018-07-22T23:32:04.669Z,70.49
2018-07-22T23:34:35.529Z,71.42
2018-07-22T23:37:06.485Z,71.10
2018-07-22T23:39:37.497Z,70.43
2018-07-22T23:42:08.996Z,70.30
2018-07-22T23:44:40.207Z,70.94
2018-07-22T23:47:11.441Z,70.70
2018-07-22T23:49:42.484Z,71.29
2018-07-22T23:52:13.466Z,71.41
2018-07-22T23:54:44.457Z,71.42
2018-07-22T23:57:15.505Z,70.73
2018-07-22T23:59:46.465Z,70.97
